Time;durP1;ratioP1;P1;durP2;ratioP2;P2;SDS_P1;SDS_P2;PMS_P1;PMS_P2;Temp;Humidity;BMP_temperature;BMP_pressure;BME280_temperature;BME280_humidity;BME280_pressure;Samples;Min_cycle;Max_cycle;Signal;HPM_P1;HPM_P2
2023/01/09 00:05:04;;;;;;;32.03;14.50;;;6.30;99.90;;;;;;20843785;28;20048;-80
2023/01/09 00:15:06;;;;;;;26.23;14.15;;;6.30;99.90;;;;;;20759198;28;20034;-80
2023/01/09 00:25:08;;;;;;;21.23;10.93;;;6.40;99.90;;;;;;20760514;28;20034;-80
2023/01/09 00:35:14;;;;;;;21.63;10.90;;;6.40;99.90;;;;;;20764170;28;20094;-80
2023/01/09 00:45:27;;;;;;;28.85;15.52;;;6.20;99.90;;;;;;20843143;28;20484;-79
2023/01/09 00:55:28;;;;;;;27.52;14.27;;;6.30;99.90;;;;;;20851842;28;20091;-80
2023/01/09 01:15:50;;;;;;;8.60;3.85;;;6.40;99.90;;;;;;20844195;28;20405;-75
2023/01/09 01:25:50;;;;;;;;;;;6.70;99.90;;;;;;20847262;28;20072;-81
2023/01/09 01:36:03;;;;;;;2.10;1.17;;;6.80;99.90;;;;;;20853205;28;20264;-80
2023/01/09 01:46:03;;;;;;;1.60;0.50;;;6.70;99.90;;;;;;20852929;28;20037;-79
2023/01/09 01:56:24;;;;;;;;;;;6.60;99.90;;;;;;20851697;28;20435;-80
2023/01/09 02:06:26;;;;;;;1.05;0.57;;;6.50;99.90;;;;;;20850622;28;19920;-80
2023/01/09 02:16:46;;;;;;;0.32;0.30;;;6.40;99.90;;;;;;20849429;28;20033;-80
2023/01/09 02:27:13;;;;;;;2.28;0.38;;;6.40;99.90;;;;;;20825223;28;20029;-80
2023/01/09 02:38:04;;;;;;;2.10;0.30;;;6.30;99.90;;;;;;20789016;28;20091;-81
2023/01/09 02:48:05;;;;;;;1.45;0.47;;;6.30;99.90;;;;;;20847743;28;20099;-80
2023/01/09 02:58:17;;;;;;;0.47;0.40;;;6.20;99.90;;;;;;20834280;28;20511;-80
2023/01/09 03:08:21;;;;;;;0.35;0.30;;;6.30;99.90;;;;;;20845650;28;20139;-77
2023/01/09 03:18:26;;;;;;;0.35;0.32;;;6.40;99.90;;;;;;20857385;28;20033;-77
2023/01/09 03:28:28;;;;;;;0.57;0.20;;;6.30;99.90;;;;;;20845383;28;20033;-80
2023/01/09 03:38:29;;;;;;;2.65;0.40;;;6.30;99.90;;;;;;20837282;28;20033;-77
2023/01/09 03:48:29;;;;;;;;;;;6.50;99.90;;;;;;20832649;28;20443;-81
2023/01/09 03:58:30;;;;;;;1.23;0.43;;;6.40;99.90;;;;;;20833844;28;19920;-80
2023/01/09 04:08:33;;;;;;;0.52;0.40;;;6.30;99.90;;;;;;20834803;28;20288;-80
2023/01/09 04:18:35;;;;;;;3.85;0.35;;;6.30;99.90;;;;;;20823394;28;20033;-80
2023/01/09 04:28:37;;;;;;;0.30;0.30;;;6.20;99.90;;;;;;20818588;28;20058;-79
2023/01/09 04:38:39;;;;;;;1.02;0.30;;;6.00;99.90;;;;;;20800089;28;20032;-79
2023/01/09 04:48:42;;;;;;;0.95;0.50;;;5.80;99.90;;;;;;20803802;28;20436;-80
2023/01/09 04:58:43;;;;;;;0.68;0.40;;;5.70;99.90;;;;;;20833491;28;20034;-79
2023/01/09 05:08:45;;;;;;;0.75;0.38;;;5.70;99.90;;;;;;20844462;28;20029;-79
2023/01/09 05:18:47;;;;;;;0.65;0.30;;;5.70;99.90;;;;;;20832514;28;20029;-79
2023/01/09 05:28:50;;;;;;;2.42;0.47;;;5.60;99.90;;;;;;20857045;28;20104;-81
2023/01/09 05:38:50;;;;;;;3.33;0.93;;;5.60;99.90;;;;;;20854237;28;20029;-79
2023/01/09 05:48:51;;;;;;;3.17;0.75;;;5.50;99.90;;;;;;20846178;28;20037;-80
2023/01/09 05:58:52;;;;;;;4.43;0.60;;;5.50;99.90;;;;;;20849058;28;20554;-79
2023/01/09 06:08:53;;;;;;;2.10;0.50;;;5.30;99.90;;;;;;20851352;28;20037;-79
2023/01/09 06:18:55;;;;;;;3.40;0.52;;;5.10;99.90;;;;;;20837735;28;20038;-78
2023/01/09 06:28:57;;;;;;;3.08;0.50;;;4.90;99.90;;;;;;20766118;28;20030;-78
2023/01/09 06:38:58;;;;;;;0.90;0.50;;;4.90;99.90;;;;;;20787694;28;20057;-78
2023/01/09 06:49:00;;;;;;;;;;;5.00;99.90;;;;;;20815245;28;20053;-79
2023/01/09 06:59:01;;;;;;;3.10;0.70;;;4.90;99.90;;;;;;20837491;28;20418;-79
2023/01/09 07:09:04;;;;;;;1.85;0.45;;;4.80;99.90;;;;;;20834347;28;20061;-78
2023/01/09 07:19:05;;;;;;;2.20;0.60;;;4.80;99.90;;;;;;20832390;28;20033;-79
2023/01/09 07:29:06;;;;;;;;;;;4.90;99.90;;;;;;20836913;28;20392;-78
2023/01/09 07:39:08;;;;;;;9.33;2.87;;;4.80;99.90;;;;;;20834448;28;19931;-78
2023/01/09 07:49:08;;;;;;;7.93;1.63;;;4.90;99.90;;;;;;20823494;28;20402;-78
2023/01/09 07:59:11;;;;;;;3.80;1.10;;;4.90;99.90;;;;;;20843109;28;20026;-78
2023/01/09 08:09:12;;;;;;;5.30;1.13;;;4.90;99.90;;;;;;20823857;28;20037;-79
2023/01/09 08:19:13;;;;;;;8.20;2.00;;;5.60;99.90;;;;;;20815605;28;20033;-78
2023/01/09 08:29:15;;;;;;;;;;;5.60;99.90;;;;;;20773615;28;20120;-78
2023/01/09 08:39:17;;;;;;;3.58;0.90;;;5.70;99.90;;;;;;20838016;28;19909;-79
2023/01/09 08:49:17;;;;;;;;;;;5.70;99.90;;;;;;20787248;28;20401;-77
2023/01/09 08:59:18;;;;;;;0.63;0.50;;;5.90;99.90;;;;;;20761511;28;19949;-78
2023/01/09 09:09:19;;;;;;;;;;;6.10;99.90;;;;;;20782581;28;20073;-78
2023/01/09 09:19:20;;;;;;;5.67;1.00;;;7.10;99.90;;;;;;20809361;28;20361;-78
2023/01/09 09:29:21;;;;;;;;;;;8.50;99.90;;;;;;20800852;28;20499;-78
2023/01/09 09:39:23;;;;;;;5.65;1.17;;;7.80;99.90;;;;;;20816933;28;19913;-77
2023/01/09 09:49:40;;;;;;;5.97;0.65;;;9.10;99.90;;;;;;20829654;28;20052;-78
2023/01/09 09:59:43;;;;;;;5.20;0.40;;;10.00;99.90;;;;;;20825677;28;20072;-77
2023/01/09 10:09:53;;;;;;;6.07;0.80;;;9.60;99.90;;;;;;20833799;28;20484;-77
2023/01/09 10:20:03;;;;;;;0.32;0.20;;;10.00;99.90;;;;;;20802830;28;20033;-77
2023/01/09 10:30:36;;;;;;;5.55;0.73;;;8.50;99.90;;;;;;20801993;28;20116;-76
2023/01/09 10:40:45;;;;;;;4.13;0.60;;;8.20;99.90;;;;;;20804446;28;20018;-77
2023/01/09 10:50:49;;;;;;;0.85;0.43;;;8.00;99.90;;;;;;20801414;28;20537;-77
2023/01/09 11:00:50;;;;;;;5.00;0.60;;;7.70;99.90;;;;;;20798234;28;20481;-77
2023/01/09 11:10:52;;;;;;;;;;;7.70;99.90;;;;;;20808285;28;20029;-77
2023/01/09 11:20:53;;;;;;;2.60;0.37;;;7.50;99.90;;;;;;20797159;28;19919;-77
2023/01/09 11:30:58;;;;;;;0.25;0.25;;;7.00;99.90;;;;;;20757047;28;20069;-77
2023/01/09 11:41:02;;;;;;;0.22;0.22;;;6.20;99.90;;;;;;20795870;28;20045;-76
2023/01/09 11:51:16;;;;;;;0.30;0.30;;;6.20;99.90;;;;;;20805982;28;20446;-77
2023/01/09 12:01:29;;;;;;;0.80;0.32;;;6.50;99.90;;;;;;20798693;28;20121;-77
2023/01/09 12:12:03;;;;;;;0.55;0.38;;;6.70;99.90;;;;;;20804441;28;20049;-77
2023/01/09 12:22:43;;;;;;;0.68;0.30;;;6.90;99.90;;;;;;20814230;28;20033;-76
2023/01/09 12:33:11;;;;;;;4.18;1.33;;;7.20;99.90;;;;;;20720406;28;20058;-77
2023/01/09 12:44:02;;;;;;;6.97;1.05;;;7.30;99.90;;;;;;20736686;28;20045;-76
2023/01/09 12:54:39;;;;;;;7.72;0.75;;;7.40;99.90;;;;;;20704834;28;20748;-77
2023/01/09 13:04:49;;;;;;;2.33;0.80;;;7.60;99.90;;;;;;20827356;28;20140;-77
2023/01/09 13:15:00;;;;;;;1.63;0.50;;;7.80;99.90;;;;;;20826194;28;20025;-77
2023/01/09 13:25:22;;;;;;;4.10;0.47;;;7.50;99.90;;;;;;20818225;28;20461;-76
2023/01/09 13:35:23;;;;;;;2.70;0.70;;;7.60;99.90;;;;;;20838068;28;20272;-77
2023/01/09 13:45:49;;;;;;;6.00;0.80;;;7.30;99.90;;;;;;20830873;28;20069;-77
2023/01/09 13:55:56;;;;;;;9.02;0.73;;;7.10;99.90;;;;;;20824667;28;20044;-77
2023/01/09 14:05:57;;;;;;;4.97;1.27;;;7.00;99.90;;;;;;20836201;28;20046;-77
2023/01/09 14:16:28;;;;;;;6.63;0.85;;;7.10;99.90;;;;;;20835495;28;20566;-77
2023/01/09 14:26:55;;;;;;;4.53;0.80;;;7.30;99.90;;;;;;20834218;28;20037;-77
2023/01/09 14:37:01;;;;;;;4.35;0.65;;;7.30;99.90;;;;;;20833752;28;20057;-77
2023/01/09 14:47:13;;;;;;;2.25;1.05;;;7.70;99.90;;;;;;20833294;28;20065;-76
2023/01/09 14:57:28;;;;;;;1.80;0.82;;;6.20;99.90;;;;;;20836397;28;20037;-77
2023/01/09 15:07:33;;;;;;;1.40;0.50;;;4.90;99.90;;;;;;20812856;28;20026;-77
2023/01/09 15:17:38;;;;;;;0.30;0.28;;;4.80;99.90;;;;;;20750249;28;20026;-77
2023/01/09 15:27:51;;;;;;;1.00;0.40;;;4.60;99.90;;;;;;20748634;28;20029;-76
2023/01/09 15:37:54;;;;;;;2.88;0.85;;;4.30;99.90;;;;;;20769889;28;20037;-76
2023/01/09 15:48:29;;;;;;;3.25;0.85;;;4.30;99.90;;;;;;20856406;28;20044;-76
2023/01/09 15:58:35;;;;;;;9.57;2.33;;;4.20;99.90;;;;;;20799127;28;20057;-75
2023/01/09 16:08:41;;;;;;;3.00;1.30;;;4.20;99.90;;;;;;20797171;28;20052;-77
2023/01/09 16:18:50;;;;;;;12.75;5.93;;;4.20;99.90;;;;;;20787551;28;20498;-77
2023/01/09 16:28:52;;;;;;;6.07;2.90;;;4.20;99.90;;;;;;20782552;28;20409;-77
2023/01/09 16:38:57;;;;;;;6.63;2.25;;;4.20;99.90;;;;;;20788530;28;20033;-78
2023/01/09 16:48:58;;;;;;;3.60;1.77;;;4.20;99.90;;;;;;20808268;28;20040;-77
2023/01/09 16:58:59;;;;;;;9.23;1.73;;;4.20;99.90;;;;;;20815713;28;20041;-78
2023/01/09 17:09:01;;;;;;;4.28;1.48;;;4.10;99.90;;;;;;20819365;28;20041;-77
2023/01/09 17:19:04;;;;;;;3.72;1.52;;;4.20;99.90;;;;;;20836588;28;20524;-78
2023/01/09 17:29:05;;;;;;;6.75;3.20;;;4.20;99.90;;;;;;20757044;28;20744;-77
2023/01/09 17:39:08;;;;;;;4.13;1.33;;;4.20;99.90;;;;;;20779787;28;20038;-77
2023/01/09 17:49:18;;;;;;;2.03;0.82;;;4.30;99.90;;;;;;20860804;28;20034;-78
2023/01/09 17:59:20;;;;;;;5.67;0.70;;;4.50;99.90;;;;;;20835235;28;20030;-78
2023/01/09 18:09:21;;;;;;;2.65;0.77;;;4.60;99.90;;;;;;20831140;28;20096;-77
2023/01/09 18:19:21;;;;;;;4.57;0.73;;;4.60;99.90;;;;;;20857934;28;20144;-76
2023/01/09 18:29:22;;;;;;;4.70;0.80;;;4.60;99.90;;;;;;20857255;28;20044;-77
2023/01/09 18:39:24;;;;;;;1.75;0.80;;;4.60;99.90;;;;;;20859074;28;20392;-81
2023/01/09 18:49:25;;;;;;;3.45;1.02;;;4.60;99.90;;;;;;20820611;28;20391;-79
2023/01/09 18:59:26;;;;;;;3.28;1.08;;;4.50;99.90;;;;;;20828552;28;20030;-79
2023/01/09 19:09:27;;;;;;;3.47;0.82;;;4.50;99.90;;;;;;20814455;28;20056;-80
2023/01/09 19:19:29;;;;;;;3.92;0.90;;;4.50;99.90;;;;;;20827662;28;20030;-78
2023/01/09 19:29:29;;;;;;;7.00;0.98;;;4.50;99.90;;;;;;20821803;28;20034;-80
2023/01/09 19:39:31;;;;;;;8.75;1.10;;;4.60;99.90;;;;;;20821515;28;20067;-79
2023/01/09 19:49:32;;;;;;;2.42;1.30;;;4.60;99.90;;;;;;20800613;28;20519;-78
2023/01/09 19:59:34;;;;;;;6.95;1.20;;;4.70;99.90;;;;;;20761272;28;20421;-78
2023/01/09 20:09:35;;;;;;;4.03;1.02;;;4.70;99.90;;;;;;20854753;28;20551;-77
2023/01/09 20:19:36;;;;;;;4.75;1.38;;;4.70;99.90;;;;;;20905350;28;20041;-78
2023/01/09 20:29:37;;;;;;;3.53;0.95;;;4.70;99.90;;;;;;20881679;28;20550;-78
2023/01/09 20:39:39;;;;;;;8.25;1.58;;;4.70;99.90;;;;;;20827432;28;20119;-79
2023/01/09 20:49:39;;;;;;;5.93;1.45;;;4.70;99.90;;;;;;20825012;28;20443;-79
2023/01/09 20:59:42;;;;;;;1.48;1.10;;;4.70;99.90;;;;;;20844039;28;20025;-80
2023/01/09 21:09:42;;;;;;;2.58;0.90;;;4.60;99.90;;;;;;20838459;28;20033;-79
2023/01/09 21:19:44;;;;;;;4.90;1.02;;;4.50;99.90;;;;;;20834607;28;20500;-78
2023/01/09 21:29:45;;;;;;;5.55;1.00;;;4.40;99.90;;;;;;20823600;28;20116;-79
2023/01/09 21:39:48;;;;;;;2.65;1.13;;;4.40;99.90;;;;;;20787936;28;20036;-78
2023/01/09 21:49:49;;;;;;;4.47;1.00;;;4.30;99.90;;;;;;20802740;28;20022;-78
2023/01/09 21:59:51;;;;;;;1.55;0.95;;;4.30;99.90;;;;;;20788081;28;20101;-78
2023/01/09 22:09:51;;;;;;;2.35;0.77;;;4.10;99.90;;;;;;20804020;28;20025;-78
2023/01/09 22:19:52;;;;;;;4.03;0.70;;;4.10;99.90;;;;;;20792796;28;20041;-78
2023/01/09 22:29:54;;;;;;;4.90;0.90;;;4.20;99.90;;;;;;20791803;28;20025;-77
2023/01/09 22:39:55;;;;;;;0.60;0.50;;;4.30;99.90;;;;;;20800590;28;20069;-78
2023/01/09 22:49:56;;;;;;;4.10;0.80;;;4.40;99.90;;;;;;20805282;28;20029;-78
2023/01/09 22:59:57;;;;;;;5.18;0.80;;;4.40;99.90;;;;;;20798516;28;20113;-77
2023/01/09 23:10:00;;;;;;;3.00;1.00;;;4.40;99.90;;;;;;20868698;28;20033;-78
2023/01/09 23:20:01;;;;;;;11.73;1.70;;;4.40;99.90;;;;;;20922106;28;20044;-77
2023/01/09 23:30:03;;;;;;;3.25;1.40;;;4.50;99.90;;;;;;20842231;28;20034;-78
2023/01/09 23:40:06;;;;;;;4.72;1.70;;;4.50;99.90;;;;;;20834006;28;20373;-78
2023/01/09 23:50:07;;;;;;;5.32;1.40;;;4.60;99.90;;;;;;20824351;28;20033;-78
